<?xml version="1.0" encoding="UTF-8" standalone="no" ?>
<gpx xmlns="http://www.topografix.com/GPX/1/1" xmlns:xsi="http://www.w3.org/2001/XMLSchema-instance" xsi:schemaLocation="http://www.topografix.com/GPX/1/1 http://www.topografix.com/GPX/1/1/gpx.xsd" version="1.1" creator="VisuGPX - https://www.visugpx.com">
  <metadata>
    <name>Brosses Vaulabelle 11_8km</name>
    <desc><![CDATA[Brosses, la ferme du Vaulabelle
Dist 12km.  Dev+ 180m
Parking Brosses Cimetière 
]]></desc>
  </metadata>
  <trk>
    <name><![CDATA[Brosses Vaulabelle 11_8km_1]]></name>
    <extensions>
      <line xmlns="http://www.topografix.com/GPX/gpx_style/0/2">
        <color>0000FF</color>
        <width>4</width>
      </line>
    </extensions>
    <trkseg>
      <trkpt lat="47.53665" lon="3.6916">
        <ele>211</ele>
        <time>2021-06-28T20:32:51+02:00</time>
      </trkpt>
      <trkpt lat="47.53668" lon="3.69215">
        <ele>209</ele>
        <time>2021-06-28T20:32:56+02:00</time>
      </trkpt>
      <trkpt lat="47.53787" lon="3.69105">
        <ele>216</ele>
        <time>2021-06-28T20:33:01+02:00</time>
      </trkpt>
      <trkpt lat="47.53811" lon="3.69145">
        <ele>218</ele>
        <time>2021-06-28T20:33:06+02:00</time>
      </trkpt>
      <trkpt lat="47.5384" lon="3.69216">
        <ele>225</ele>
        <time>2021-06-28T20:33:11+02:00</time>
      </trkpt>
      <trkpt lat="47.53859" lon="3.69269">
        <ele>231</ele>
        <time>2021-06-28T20:33:16+02:00</time>
      </trkpt>
      <trkpt lat="47.53926" lon="3.692">
        <ele>230</ele>
        <time>2021-06-28T20:33:21+02:00</time>
      </trkpt>
      <trkpt lat="47.5398" lon="3.69155">
        <ele>231</ele>
        <time>2021-06-28T20:33:26+02:00</time>
      </trkpt>
      <trkpt lat="47.54032" lon="3.69108">
        <ele>230</ele>
        <time>2021-06-28T20:33:31+02:00</time>
      </trkpt>
      <trkpt lat="47.5411" lon="3.69071">
        <ele>230</ele>
        <time>2021-06-28T20:33:36+02:00</time>
      </trkpt>
      <trkpt lat="47.54147" lon="3.69076">
        <ele>231</ele>
        <time>2021-06-28T20:33:41+02:00</time>
      </trkpt>
      <trkpt lat="47.54199" lon="3.69124">
        <ele>238</ele>
        <time>2021-06-28T20:33:46+02:00</time>
      </trkpt>
      <trkpt lat="47.54258" lon="3.69091">
        <ele>235</ele>
        <time>2021-06-28T20:33:51+02:00</time>
      </trkpt>
      <trkpt lat="47.54241" lon="3.69043">
        <ele>229</ele>
        <time>2021-06-28T20:33:56+02:00</time>
      </trkpt>
      <trkpt lat="47.54236" lon="3.69013">
        <ele>226</ele>
        <time>2021-06-28T20:34:01+02:00</time>
      </trkpt>
      <trkpt lat="47.54276" lon="3.69017">
        <ele>228</ele>
        <time>2021-06-28T20:34:06+02:00</time>
      </trkpt>
      <trkpt lat="47.5439" lon="3.69046">
        <ele>238</ele>
        <time>2021-06-28T20:34:11+02:00</time>
      </trkpt>
      <trkpt lat="47.54465" lon="3.69083">
        <ele>243</ele>
        <time>2021-06-28T20:34:16+02:00</time>
      </trkpt>
      <trkpt lat="47.54533" lon="3.69137">
        <ele>247</ele>
        <time>2021-06-28T20:34:21+02:00</time>
      </trkpt>
      <trkpt lat="47.5459" lon="3.69206">
        <ele>251</ele>
        <time>2021-06-28T20:34:26+02:00</time>
      </trkpt>
      <trkpt lat="47.54582" lon="3.69117">
        <ele>245</ele>
        <time>2021-06-28T20:34:31+02:00</time>
      </trkpt>
      <trkpt lat="47.54563" lon="3.69059">
        <ele>241</ele>
        <time>2021-06-28T20:34:36+02:00</time>
      </trkpt>
      <trkpt lat="47.5451" lon="3.68974">
        <ele>231</ele>
        <time>2021-06-28T20:34:41+02:00</time>
      </trkpt>
      <trkpt lat="47.54454" lon="3.6884">
        <ele>218</ele>
        <time>2021-06-28T20:34:46+02:00</time>
      </trkpt>
      <trkpt lat="47.54403" lon="3.6874">
        <ele>207</ele>
        <time>2021-06-28T20:34:51+02:00</time>
      </trkpt>
      <trkpt lat="47.54367" lon="3.68615">
        <ele>200</ele>
        <time>2021-06-28T20:34:56+02:00</time>
      </trkpt>
      <trkpt lat="47.54345" lon="3.68511">
        <ele>194</ele>
        <time>2021-06-28T20:35:01+02:00</time>
      </trkpt>
      <trkpt lat="47.54382" lon="3.68384">
        <ele>184</ele>
        <time>2021-06-28T20:35:06+02:00</time>
      </trkpt>
      <trkpt lat="47.54399" lon="3.68322">
        <ele>177</ele>
        <time>2021-06-28T20:35:11+02:00</time>
      </trkpt>
      <trkpt lat="47.54392" lon="3.68248">
        <ele>170</ele>
        <time>2021-06-28T20:35:16+02:00</time>
      </trkpt>
      <trkpt lat="47.54423" lon="3.68223">
        <ele>170</ele>
        <time>2021-06-28T20:35:21+02:00</time>
      </trkpt>
      <trkpt lat="47.54459" lon="3.68137">
        <ele>166</ele>
        <time>2021-06-28T20:35:26+02:00</time>
      </trkpt>
      <trkpt lat="47.54526" lon="3.68085">
        <ele>162</ele>
        <time>2021-06-28T20:35:31+02:00</time>
      </trkpt>
      <trkpt lat="47.54609" lon="3.68086">
        <ele>163</ele>
        <time>2021-06-28T20:35:36+02:00</time>
      </trkpt>
      <trkpt lat="47.54683" lon="3.6813">
        <ele>165</ele>
        <time>2021-06-28T20:35:41+02:00</time>
      </trkpt>
      <trkpt lat="47.54681" lon="3.68022">
        <ele>165</ele>
        <time>2021-06-28T20:35:46+02:00</time>
      </trkpt>
      <trkpt lat="47.54659" lon="3.67986">
        <ele>167</ele>
        <time>2021-06-28T20:35:51+02:00</time>
      </trkpt>
      <trkpt lat="47.5461" lon="3.6798">
        <ele>167</ele>
        <time>2021-06-28T20:35:56+02:00</time>
      </trkpt>
      <trkpt lat="47.54552" lon="3.67955">
        <ele>169</ele>
        <time>2021-06-28T20:36:01+02:00</time>
      </trkpt>
      <trkpt lat="47.54455" lon="3.67876">
        <ele>179</ele>
        <time>2021-06-28T20:36:06+02:00</time>
      </trkpt>
      <trkpt lat="47.54404" lon="3.67763">
        <ele>182</ele>
        <time>2021-06-28T20:36:11+02:00</time>
      </trkpt>
      <trkpt lat="47.54332" lon="3.67698">
        <ele>186</ele>
        <time>2021-06-28T20:36:16+02:00</time>
      </trkpt>
      <trkpt lat="47.54243" lon="3.67626">
        <ele>194</ele>
        <time>2021-06-28T20:36:21+02:00</time>
      </trkpt>
      <trkpt lat="47.54145" lon="3.67528">
        <ele>202</ele>
        <time>2021-06-28T20:36:26+02:00</time>
      </trkpt>
      <trkpt lat="47.54106" lon="3.67399">
        <ele>210</ele>
        <time>2021-06-28T20:36:31+02:00</time>
      </trkpt>
      <trkpt lat="47.54085" lon="3.67296">
        <ele>215</ele>
        <time>2021-06-28T20:36:36+02:00</time>
      </trkpt>
      <trkpt lat="47.54091" lon="3.67229">
        <ele>220</ele>
        <time>2021-06-28T20:36:41+02:00</time>
      </trkpt>
      <trkpt lat="47.54139" lon="3.67128">
        <ele>226</ele>
        <time>2021-06-28T20:36:46+02:00</time>
      </trkpt>
      <trkpt lat="47.54219" lon="3.67044">
        <ele>230</ele>
        <time>2021-06-28T20:36:51+02:00</time>
      </trkpt>
      <trkpt lat="47.54322" lon="3.66999">
        <ele>232</ele>
        <time>2021-06-28T20:36:56+02:00</time>
      </trkpt>
      <trkpt lat="47.54389" lon="3.66972">
        <ele>231</ele>
        <time>2021-06-28T20:37:01+02:00</time>
      </trkpt>
      <trkpt lat="47.54497" lon="3.66849">
        <ele>232</ele>
        <time>2021-06-28T20:37:06+02:00</time>
      </trkpt>
      <trkpt lat="47.5457" lon="3.66773">
        <ele>232</ele>
        <time>2021-06-28T20:37:11+02:00</time>
      </trkpt>
      <trkpt lat="47.54699" lon="3.66631">
        <ele>223</ele>
        <time>2021-06-28T20:37:16+02:00</time>
      </trkpt>
      <trkpt lat="47.54833" lon="3.66541">
        <ele>204</ele>
        <time>2021-06-28T20:37:21+02:00</time>
      </trkpt>
      <trkpt lat="47.54913" lon="3.66446">
        <ele>193</ele>
        <time>2021-06-28T20:37:26+02:00</time>
      </trkpt>
      <trkpt lat="47.54979" lon="3.66417">
        <ele>187</ele>
        <time>2021-06-28T20:37:31+02:00</time>
      </trkpt>
      <trkpt lat="47.54983" lon="3.66341">
        <ele>186</ele>
        <time>2021-06-28T20:37:36+02:00</time>
      </trkpt>
      <trkpt lat="47.54961" lon="3.66243">
        <ele>187</ele>
        <time>2021-06-28T20:37:41+02:00</time>
      </trkpt>
      <trkpt lat="47.54998" lon="3.66113">
        <ele>183</ele>
        <time>2021-06-28T20:37:46+02:00</time>
      </trkpt>
      <trkpt lat="47.55008" lon="3.65993">
        <ele>177</ele>
        <time>2021-06-28T20:37:51+02:00</time>
      </trkpt>
      <trkpt lat="47.5503" lon="3.65979">
        <ele>177</ele>
        <time>2021-06-28T20:37:56+02:00</time>
      </trkpt>
      <trkpt lat="47.55036" lon="3.65923">
        <ele>173</ele>
        <time>2021-06-28T20:38:01+02:00</time>
      </trkpt>
      <trkpt lat="47.55019" lon="3.65833">
        <ele>168</ele>
        <time>2021-06-28T20:38:06+02:00</time>
      </trkpt>
      <trkpt lat="47.54985" lon="3.65704">
        <ele>162</ele>
        <time>2021-06-28T20:38:11+02:00</time>
      </trkpt>
      <trkpt lat="47.54988" lon="3.65622">
        <ele>157</ele>
        <time>2021-06-28T20:38:16+02:00</time>
      </trkpt>
      <trkpt lat="47.54959" lon="3.65571">
        <ele>154</ele>
        <time>2021-06-28T20:38:21+02:00</time>
      </trkpt>
      <trkpt lat="47.5492" lon="3.65534">
        <ele>152</ele>
        <time>2021-06-28T20:38:26+02:00</time>
      </trkpt>
      <trkpt lat="47.54861" lon="3.65503">
        <ele>157</ele>
        <time>2021-06-28T20:38:31+02:00</time>
      </trkpt>
      <trkpt lat="47.54779" lon="3.65491">
        <ele>166</ele>
        <time>2021-06-28T20:38:36+02:00</time>
      </trkpt>
      <trkpt lat="47.54674" lon="3.65463">
        <ele>174</ele>
        <time>2021-06-28T20:38:41+02:00</time>
      </trkpt>
      <trkpt lat="47.54567" lon="3.65381">
        <ele>180</ele>
        <time>2021-06-28T20:38:46+02:00</time>
      </trkpt>
      <trkpt lat="47.54461" lon="3.6528">
        <ele>186</ele>
        <time>2021-06-28T20:38:51+02:00</time>
      </trkpt>
      <trkpt lat="47.54384" lon="3.65231">
        <ele>189</ele>
        <time>2021-06-28T20:38:56+02:00</time>
      </trkpt>
      <trkpt lat="47.54338" lon="3.65212">
        <ele>190</ele>
        <time>2021-06-28T20:39:01+02:00</time>
      </trkpt>
      <trkpt lat="47.54382" lon="3.65306">
        <ele>189</ele>
        <time>2021-06-28T20:39:06+02:00</time>
      </trkpt>
      <trkpt lat="47.5441" lon="3.65405">
        <ele>187</ele>
        <time>2021-06-28T20:39:11+02:00</time>
      </trkpt>
      <trkpt lat="47.54442" lon="3.65485">
        <ele>186</ele>
        <time>2021-06-28T20:39:16+02:00</time>
      </trkpt>
      <trkpt lat="47.54319" lon="3.65572">
        <ele>196</ele>
        <time>2021-06-28T20:39:21+02:00</time>
      </trkpt>
      <trkpt lat="47.54283" lon="3.65671">
        <ele>194</ele>
        <time>2021-06-28T20:39:26+02:00</time>
      </trkpt>
      <trkpt lat="47.54229" lon="3.65753">
        <ele>195</ele>
        <time>2021-06-28T20:39:31+02:00</time>
      </trkpt>
      <trkpt lat="47.54223" lon="3.65843">
        <ele>192</ele>
        <time>2021-06-28T20:39:36+02:00</time>
      </trkpt>
      <trkpt lat="47.54186" lon="3.65952">
        <ele>196</ele>
        <time>2021-06-28T20:39:41+02:00</time>
      </trkpt>
      <trkpt lat="47.54189" lon="3.6609">
        <ele>204</ele>
        <time>2021-06-28T20:39:46+02:00</time>
      </trkpt>
      <trkpt lat="47.54185" lon="3.66174">
        <ele>208</ele>
        <time>2021-06-28T20:39:51+02:00</time>
      </trkpt>
      <trkpt lat="47.54176" lon="3.66246">
        <ele>211</ele>
        <time>2021-06-28T20:39:56+02:00</time>
      </trkpt>
      <trkpt lat="47.54167" lon="3.66346">
        <ele>215</ele>
        <time>2021-06-28T20:40:01+02:00</time>
      </trkpt>
      <trkpt lat="47.54157" lon="3.66418">
        <ele>218</ele>
        <time>2021-06-28T20:40:06+02:00</time>
      </trkpt>
      <trkpt lat="47.54163" lon="3.66483">
        <ele>220</ele>
        <time>2021-06-28T20:40:11+02:00</time>
      </trkpt>
      <trkpt lat="47.54161" lon="3.66562">
        <ele>222</ele>
        <time>2021-06-28T20:40:16+02:00</time>
      </trkpt>
      <trkpt lat="47.54115" lon="3.66604">
        <ele>225</ele>
        <time>2021-06-28T20:40:21+02:00</time>
      </trkpt>
      <trkpt lat="47.54036" lon="3.66655">
        <ele>233</ele>
        <time>2021-06-28T20:40:26+02:00</time>
      </trkpt>
      <trkpt lat="47.54015" lon="3.66628">
        <ele>235</ele>
        <time>2021-06-28T20:40:31+02:00</time>
      </trkpt>
      <trkpt lat="47.53974" lon="3.66773">
        <ele>243</ele>
        <time>2021-06-28T20:40:36+02:00</time>
      </trkpt>
      <trkpt lat="47.5394" lon="3.66769">
        <ele>248</ele>
        <time>2021-06-28T20:40:41+02:00</time>
      </trkpt>
      <trkpt lat="47.53891" lon="3.66722">
        <ele>251</ele>
        <time>2021-06-28T20:40:46+02:00</time>
      </trkpt>
      <trkpt lat="47.53802" lon="3.66707">
        <ele>259</ele>
        <time>2021-06-28T20:40:51+02:00</time>
      </trkpt>
      <trkpt lat="47.53774" lon="3.66853">
        <ele>270</ele>
        <time>2021-06-28T20:40:56+02:00</time>
      </trkpt>
      <trkpt lat="47.53651" lon="3.66827">
        <ele>280</ele>
        <time>2021-06-28T20:41:01+02:00</time>
      </trkpt>
      <trkpt lat="47.53563" lon="3.66813">
        <ele>281</ele>
        <time>2021-06-28T20:41:06+02:00</time>
      </trkpt>
      <trkpt lat="47.53539" lon="3.66845">
        <ele>282</ele>
        <time>2021-06-28T20:41:11+02:00</time>
      </trkpt>
      <trkpt lat="47.53518" lon="3.66944">
        <ele>283</ele>
        <time>2021-06-28T20:41:16+02:00</time>
      </trkpt>
      <trkpt lat="47.53491" lon="3.67057">
        <ele>280</ele>
        <time>2021-06-28T20:41:21+02:00</time>
      </trkpt>
      <trkpt lat="47.53472" lon="3.6713">
        <ele>276</ele>
        <time>2021-06-28T20:41:26+02:00</time>
      </trkpt>
      <trkpt lat="47.53398" lon="3.67153">
        <ele>271</ele>
        <time>2021-06-28T20:41:31+02:00</time>
      </trkpt>
      <trkpt lat="47.5331" lon="3.67074">
        <ele>268</ele>
        <time>2021-06-28T20:41:36+02:00</time>
      </trkpt>
      <trkpt lat="47.53216" lon="3.67022">
        <ele>261</ele>
        <time>2021-06-28T20:41:41+02:00</time>
      </trkpt>
      <trkpt lat="47.53204" lon="3.67047">
        <ele>259</ele>
        <time>2021-06-28T20:41:46+02:00</time>
      </trkpt>
      <trkpt lat="47.53245" lon="3.67182">
        <ele>257</ele>
        <time>2021-06-28T20:41:51+02:00</time>
      </trkpt>
      <trkpt lat="47.53286" lon="3.67356">
        <ele>245</ele>
        <time>2021-06-28T20:41:56+02:00</time>
      </trkpt>
      <trkpt lat="47.53351" lon="3.6752">
        <ele>237</ele>
        <time>2021-06-28T20:42:01+02:00</time>
      </trkpt>
      <trkpt lat="47.53373" lon="3.67631">
        <ele>231</ele>
        <time>2021-06-28T20:42:06+02:00</time>
      </trkpt>
      <trkpt lat="47.53396" lon="3.67777">
        <ele>220</ele>
        <time>2021-06-28T20:42:11+02:00</time>
      </trkpt>
      <trkpt lat="47.53397" lon="3.67908">
        <ele>205</ele>
        <time>2021-06-28T20:42:16+02:00</time>
      </trkpt>
      <trkpt lat="47.53442" lon="3.68111">
        <ele>190</ele>
        <time>2021-06-28T20:42:21+02:00</time>
      </trkpt>
      <trkpt lat="47.5348" lon="3.6827">
        <ele>184</ele>
        <time>2021-06-28T20:42:26+02:00</time>
      </trkpt>
      <trkpt lat="47.53477" lon="3.68394">
        <ele>179</ele>
        <time>2021-06-28T20:42:31+02:00</time>
      </trkpt>
      <trkpt lat="47.53466" lon="3.68464">
        <ele>177</ele>
        <time>2021-06-28T20:42:36+02:00</time>
      </trkpt>
      <trkpt lat="47.53449" lon="3.68519">
        <ele>174</ele>
        <time>2021-06-28T20:42:41+02:00</time>
      </trkpt>
      <trkpt lat="47.53457" lon="3.68578">
        <ele>173</ele>
        <time>2021-06-28T20:42:46+02:00</time>
      </trkpt>
      <trkpt lat="47.53453" lon="3.68648">
        <ele>175</ele>
        <time>2021-06-28T20:42:51+02:00</time>
      </trkpt>
      <trkpt lat="47.53512" lon="3.68703">
        <ele>184</ele>
        <time>2021-06-28T20:42:56+02:00</time>
      </trkpt>
      <trkpt lat="47.53549" lon="3.68738">
        <ele>191</ele>
        <time>2021-06-28T20:43:01+02:00</time>
      </trkpt>
      <trkpt lat="47.53603" lon="3.68748">
        <ele>196</ele>
        <time>2021-06-28T20:43:06+02:00</time>
      </trkpt>
      <trkpt lat="47.53608" lon="3.6878">
        <ele>198</ele>
        <time>2021-06-28T20:43:11+02:00</time>
      </trkpt>
      <trkpt lat="47.53609" lon="3.68809">
        <ele>200</ele>
        <time>2021-06-28T20:43:16+02:00</time>
      </trkpt>
      <trkpt lat="47.53618" lon="3.68841">
        <ele>201</ele>
        <time>2021-06-28T20:43:21+02:00</time>
      </trkpt>
      <trkpt lat="47.5363" lon="3.68888">
        <ele>204</ele>
        <time>2021-06-28T20:43:26+02:00</time>
      </trkpt>
      <trkpt lat="47.53638" lon="3.68933">
        <ele>206</ele>
        <time>2021-06-28T20:43:31+02:00</time>
      </trkpt>
      <trkpt lat="47.53643" lon="3.68959">
        <ele>207</ele>
        <time>2021-06-28T20:43:36+02:00</time>
      </trkpt>
      <trkpt lat="47.53648" lon="3.68989">
        <ele>208</ele>
        <time>2021-06-28T20:43:41+02:00</time>
      </trkpt>
      <trkpt lat="47.53654" lon="3.69035">
        <ele>209</ele>
        <time>2021-06-28T20:43:46+02:00</time>
      </trkpt>
      <trkpt lat="47.5367" lon="3.69117">
        <ele>212</ele>
        <time>2021-06-28T20:43:51+02:00</time>
      </trkpt>
      <trkpt lat="47.53653" lon="3.69201">
        <ele>209</ele>
        <time>2021-06-28T20:43:56+02:00</time>
      </trkpt>
    </trkseg>
  </trk>
</gpx>